sensor_id;sensor_type;location;lat;lon;timestamp;temperature;humidity
2465;DHT22;1244;54.326;10.074;2023-05-10T00:01:24;14.00;99.90
2465;DHT22;1244;54.326;10.074;2023-05-10T00:03:50;13.90;99.90
2465;DHT22;1244;54.326;10.074;2023-05-10T00:06:15;13.90;99.90
2465;DHT22;1244;54.326;10.074;2023-05-10T00:08:41;13.90;99.90
2465;DHT22;1244;54.326;10.074;2023-05-10T00:11:06;13.90;99.90
2465;DHT22;1244;54.326;10.074;2023-05-10T00:13:32;13.90;99.90
2465;DHT22;1244;54.326;10.074;2023-05-10T00:15:58;13.70;99.90
2465;DHT22;1244;54.326;10.074;2023-05-10T00:18:23;13.70;99.90
2465;DHT22;1244;54.326;10.074;2023-05-10T00:20:49;13.70;99.90
2465;DHT22;1244;54.326;10.074;2023-05-10T00:23:14;13.70;99.90
2465;DHT22;1244;54.326;10.074;2023-05-10T00:25:40;13.60;99.90
2465;DHT22;1244;54.326;10.074;2023-05-10T00:28:05;13.60;99.90
2465;DHT22;1244;54.326;10.074;2023-05-10T00:30:31;13.60;99.90
2465;DHT22;1244;54.326;10.074;2023-05-10T00:32:56;13.60;99.90
2465;DHT22;1244;54.326;10.074;2023-05-10T00:35:22;13.60;99.90
2465;DHT22;1244;54.326;10.074;2023-05-10T00:37:48;13.50;99.90
2465;DHT22;1244;54.326;10.074;2023-05-10T00:40:13;13.60;99.90
2465;DHT22;1244;54.326;10.074;2023-05-10T00:42:39;13.50;99.90
2465;DHT22;1244;54.326;10.074;2023-05-10T00:45:05;13.50;99.90
2465;DHT22;1244;54.326;10.074;2023-05-10T00:47:31;13.50;99.90
2465;DHT22;1244;54.326;10.074;2023-05-10T00:49:57;13.50;99.90
2465;DHT22;1244;54.326;10.074;2023-05-10T00:52:23;13.40;99.90
2465;DHT22;1244;54.326;10.074;2023-05-10T00:54:52;13.30;99.90
2465;DHT22;1244;54.326;10.074;2023-05-10T00:57:18;13.30;99.90
2465;DHT22;1244;54.326;10.074;2023-05-10T00:59:44;13.30;99.90
2465;DHT22;1244;54.326;10.074;2023-05-10T01:02:09;13.30;99.90
2465;DHT22;1244;54.326;10.074;2023-05-10T01:04:36;13.30;99.90
2465;DHT22;1244;54.326;10.074;2023-05-10T01:07:01;13.20;99.90
2465;DHT22;1244;54.326;10.074;2023-05-10T01:09:27;13.20;99.90
2465;DHT22;1244;54.326;10.074;2023-05-10T01:11:53;13.20;99.90
2465;DHT22;1244;54.326;10.074;2023-05-10T01:14:19;13.20;99.90
2465;DHT22;1244;54.326;10.074;2023-05-10T01:16:46;13.20;99.90
2465;DHT22;1244;54.326;10.074;2023-05-10T01:19:39;13.10;99.90
2465;DHT22;1244;54.326;10.074;2023-05-10T01:25:23;13.10;99.90
2465;DHT22;1244;54.326;10.074;2023-05-10T01:34:02;13.00;99.90
2465;DHT22;1244;54.326;10.074;2023-05-10T01:36:48;13.00;99.90
2465;DHT22;1244;54.326;10.074;2023-05-10T01:42:07;13.00;99.90
2465;DHT22;1244;54.326;10.074;2023-05-10T01:45:44;12.90;99.90
2465;DHT22;1244;54.326;10.074;2023-05-10T01:48:04;13.00;99.90
2465;DHT22;1244;54.326;10.074;2023-05-10T01:50:31;12.90;99.90
2465;DHT22;1244;54.326;10.074;2023-05-10T01:52:59;13.00;99.90
2465;DHT22;1244;54.326;10.074;2023-05-10T01:55:28;12.90;99.90
2465;DHT22;1244;54.326;10.074;2023-05-10T01:58:06;12.90;99.90
2465;DHT22;1244;54.326;10.074;2023-05-10T02:00:34;12.90;99.90
2465;DHT22;1244;54.326;10.074;2023-05-10T02:03:05;12.80;99.90
2465;DHT22;1244;54.326;10.074;2023-05-10T02:05:32;12.80;99.90
2465;DHT22;1244;54.326;10.074;2023-05-10T02:07:59;12.80;99.90
2465;DHT22;1244;54.326;10.074;2023-05-10T02:10:27;12.70;99.90
2465;DHT22;1244;54.326;10.074;2023-05-10T02:12:53;12.70;99.90
2465;DHT22;1244;54.326;10.074;2023-05-10T02:15:23;12.60;99.90
2465;DHT22;1244;54.326;10.074;2023-05-10T02:17:50;12.60;99.90
2465;DHT22;1244;54.326;10.074;2023-05-10T02:20:17;12.70;99.90
2465;DHT22;1244;54.326;10.074;2023-05-10T02:22:45;12.70;99.90
2465;DHT22;1244;54.326;10.074;2023-05-10T02:25:13;12.70;99.90
2465;DHT22;1244;54.326;10.074;2023-05-10T02:27:40;12.70;99.90
2465;DHT22;1244;54.326;10.074;2023-05-10T02:30:07;12.60;99.90
2465;DHT22;1244;54.326;10.074;2023-05-10T02:32:33;12.60;99.90
2465;DHT22;1244;54.326;10.074;2023-05-10T02:35:01;12.60;99.90
2465;DHT22;1244;54.326;10.074;2023-05-10T02:37:28;12.50;98.40
2465;DHT22;1244;54.326;10.074;2023-05-10T02:39:55;12.50;96.90
2465;DHT22;1244;54.326;10.074;2023-05-10T02:42:28;12.50;96.70
2465;DHT22;1244;54.326;10.074;2023-05-10T02:45:00;12.40;96.50
2465;DHT22;1244;54.326;10.074;2023-05-10T02:47:27;12.40;96.70
2465;DHT22;1244;54.326;10.074;2023-05-10T02:49:53;12.40;96.60
2465;DHT22;1244;54.326;10.074;2023-05-10T02:52:24;12.40;96.60
2465;DHT22;1244;54.326;10.074;2023-05-10T02:54:52;12.40;96.50
2465;DHT22;1244;54.326;10.074;2023-05-10T02:57:25;12.40;96.50
2465;DHT22;1244;54.326;10.074;2023-05-10T02:59:51;12.40;96.90
2465;DHT22;1244;54.326;10.074;2023-05-10T03:02:17;12.30;96.80
2465;DHT22;1244;54.326;10.074;2023-05-10T03:04:42;12.30;97.00
2465;DHT22;1244;54.326;10.074;2023-05-10T03:07:08;12.20;97.20
2465;DHT22;1244;54.326;10.074;2023-05-10T03:09:34;12.10;97.70
2465;DHT22;1244;54.326;10.074;2023-05-10T03:12:19;12.30;97.30
2465;DHT22;1244;54.326;10.074;2023-05-10T03:17:44;12.20;97.30
2465;DHT22;1244;54.326;10.074;2023-05-10T03:20:20;12.20;97.60
2465;DHT22;1244;54.326;10.074;2023-05-10T03:23:02;12.20;97.40
2465;DHT22;1244;54.326;10.074;2023-05-10T03:25:29;12.20;97.70
2465;DHT22;1244;54.326;10.074;2023-05-10T03:27:57;12.10;97.80
2465;DHT22;1244;54.326;10.074;2023-05-10T03:30:24;12.10;97.90
2465;DHT22;1244;54.326;10.074;2023-05-10T03:32:50;12.10;98.00
2465;DHT22;1244;54.326;10.074;2023-05-10T03:35:15;12.00;98.00
2465;DHT22;1244;54.326;10.074;2023-05-10T03:37:41;12.10;98.20
2465;DHT22;1244;54.326;10.074;2023-05-10T03:40:07;12.00;98.20
2465;DHT22;1244;54.326;10.074;2023-05-10T03:42:33;12.00;98.30
2465;DHT22;1244;54.326;10.074;2023-05-10T03:44:58;12.00;98.30
2465;DHT22;1244;54.326;10.074;2023-05-10T03:47:24;11.90;98.90
2465;DHT22;1244;54.326;10.074;2023-05-10T03:49:50;11.90;98.30
2465;DHT22;1244;54.326;10.074;2023-05-10T03:52:15;12.00;98.40
2465;DHT22;1244;54.326;10.074;2023-05-10T03:54:41;12.00;98.50
2465;DHT22;1244;54.326;10.074;2023-05-10T03:57:06;12.00;98.70
2465;DHT22;1244;54.326;10.074;2023-05-10T03:59:32;11.90;98.60
2465;DHT22;1244;54.326;10.074;2023-05-10T04:01:57;11.90;98.80
2465;DHT22;1244;54.326;10.074;2023-05-10T04:04:23;11.90;99.30
2465;DHT22;1244;54.326;10.074;2023-05-10T04:06:49;11.90;99.10
2465;DHT22;1244;54.326;10.074;2023-05-10T04:09:15;11.90;98.90
2465;DHT22;1244;54.326;10.074;2023-05-10T04:11:41;11.90;98.90
2465;DHT22;1244;54.326;10.074;2023-05-10T04:14:07;11.90;99.00
2465;DHT22;1244;54.326;10.074;2023-05-10T04:16:32;11.90;99.20
2465;DHT22;1244;54.326;10.074;2023-05-10T04:18:58;12.00;98.90
2465;DHT22;1244;54.326;10.074;2023-05-10T04:21:25;12.00;99.00
2465;DHT22;1244;54.326;10.074;2023-05-10T04:23:50;11.90;99.00
2465;DHT22;1244;54.326;10.074;2023-05-10T04:26:16;12.00;99.00
2465;DHT22;1244;54.326;10.074;2023-05-10T04:28:41;12.00;98.90
2465;DHT22;1244;54.326;10.074;2023-05-10T04:31:08;12.00;99.30
2465;DHT22;1244;54.326;10.074;2023-05-10T04:33:34;12.00;99.10
2465;DHT22;1244;54.326;10.074;2023-05-10T04:36:00;12.00;99.00
2465;DHT22;1244;54.326;10.074;2023-05-10T04:38:26;12.10;99.20
2465;DHT22;1244;54.326;10.074;2023-05-10T04:40:53;12.10;99.30
2465;DHT22;1244;54.326;10.074;2023-05-10T04:43:18;12.10;99.10
2465;DHT22;1244;54.326;10.074;2023-05-10T04:45:44;12.10;99.00
2465;DHT22;1244;54.326;10.074;2023-05-10T04:48:09;12.10;99.10
2465;DHT22;1244;54.326;10.074;2023-05-10T04:50:35;12.10;99.20
2465;DHT22;1244;54.326;10.074;2023-05-10T04:53:00;12.10;99.10
2465;DHT22;1244;54.326;10.074;2023-05-10T04:55:26;12.20;99.30
2465;DHT22;1244;54.326;10.074;2023-05-10T04:57:52;12.20;99.40
2465;DHT22;1244;54.326;10.074;2023-05-10T05:00:18;12.20;99.40
2465;DHT22;1244;54.326;10.074;2023-05-10T05:02:44;12.20;99.20
2465;DHT22;1244;54.326;10.074;2023-05-10T05:05:13;12.20;99.30
2465;DHT22;1244;54.326;10.074;2023-05-10T05:07:38;12.20;99.80
2465;DHT22;1244;54.326;10.074;2023-05-10T05:10:07;12.20;99.40
2465;DHT22;1244;54.326;10.074;2023-05-10T05:12:33;12.20;99.40
2465;DHT22;1244;54.326;10.074;2023-05-10T05:14:59;12.30;99.90
2465;DHT22;1244;54.326;10.074;2023-05-10T05:17:25;12.20;99.50
2465;DHT22;1244;54.326;10.074;2023-05-10T05:19:51;12.20;99.40
2465;DHT22;1244;54.326;10.074;2023-05-10T05:22:16;12.20;99.50
2465;DHT22;1244;54.326;10.074;2023-05-10T05:24:42;12.20;99.80
2465;DHT22;1244;54.326;10.074;2023-05-10T05:27:10;12.20;99.60
2465;DHT22;1244;54.326;10.074;2023-05-10T05:29:35;12.20;99.90
2465;DHT22;1244;54.326;10.074;2023-05-10T05:32:01;12.30;99.70
2465;DHT22;1244;54.326;10.074;2023-05-10T05:34:26;12.40;99.80
2465;DHT22;1244;54.326;10.074;2023-05-10T05:36:52;12.50;99.40
2465;DHT22;1244;54.326;10.074;2023-05-10T05:39:17;12.70;99.40
2465;DHT22;1244;54.326;10.074;2023-05-10T05:41:43;12.70;99.30
2465;DHT22;1244;54.326;10.074;2023-05-10T05:44:08;12.80;99.30
2465;DHT22;1244;54.326;10.074;2023-05-10T05:46:34;12.90;99.30
2465;DHT22;1244;54.326;10.074;2023-05-10T05:49:00;13.10;99.40
2465;DHT22;1244;54.326;10.074;2023-05-10T05:51:25;13.00;99.00
2465;DHT22;1244;54.326;10.074;2023-05-10T05:53:52;13.10;98.90
2465;DHT22;1244;54.326;10.074;2023-05-10T05:56:18;13.10;98.70
2465;DHT22;1244;54.326;10.074;2023-05-10T05:58:52;13.20;98.90
2465;DHT22;1244;54.326;10.074;2023-05-10T06:01:18;13.10;99.00
2465;DHT22;1244;54.326;10.074;2023-05-10T06:03:43;13.20;99.00
2465;DHT22;1244;54.326;10.074;2023-05-10T06:06:09;13.20;99.00
2465;DHT22;1244;54.326;10.074;2023-05-10T06:08:34;13.40;98.90
2465;DHT22;1244;54.326;10.074;2023-05-10T06:11:00;13.30;98.80
2465;DHT22;1244;54.326;10.074;2023-05-10T06:13:26;13.50;98.90
2465;DHT22;1244;54.326;10.074;2023-05-10T06:15:58;13.50;98.60
2465;DHT22;1244;54.326;10.074;2023-05-10T06:18:23;13.50;98.60
2465;DHT22;1244;54.326;10.074;2023-05-10T06:20:49;13.50;99.60
2465;DHT22;1244;54.326;10.074;2023-05-10T06:23:15;13.40;98.60
2465;DHT22;1244;54.326;10.074;2023-05-10T06:25:40;13.20;99.10
2465;DHT22;1244;54.326;10.074;2023-05-10T06:28:06;13.20;99.10
2465;DHT22;1244;54.326;10.074;2023-05-10T06:30:31;13.30;99.20
2465;DHT22;1244;54.326;10.074;2023-05-10T06:32:57;13.40;99.70
2465;DHT22;1244;54.326;10.074;2023-05-10T06:35:22;13.50;99.30
2465;DHT22;1244;54.326;10.074;2023-05-10T06:37:49;13.50;99.00
2465;DHT22;1244;54.326;10.074;2023-05-10T06:40:14;13.50;98.70
2465;DHT22;1244;54.326;10.074;2023-05-10T06:42:40;13.60;98.70
2465;DHT22;1244;54.326;10.074;2023-05-10T06:45:07;13.70;98.40
2465;DHT22;1244;54.326;10.074;2023-05-10T06:47:33;13.90;99.00
2465;DHT22;1244;54.326;10.074;2023-05-10T06:49:59;14.10;98.90
2465;DHT22;1244;54.326;10.074;2023-05-10T06:52:24;14.00;98.50
2465;DHT22;1244;54.326;10.074;2023-05-10T06:54:50;14.30;99.00
2465;DHT22;1244;54.326;10.074;2023-05-10T06:57:16;14.30;98.60
2465;DHT22;1244;54.326;10.074;2023-05-10T06:59:41;14.30;99.00
2465;DHT22;1244;54.326;10.074;2023-05-10T07:02:07;14.50;98.30
2465;DHT22;1244;54.326;10.074;2023-05-10T07:04:32;14.50;98.60
2465;DHT22;1244;54.326;10.074;2023-05-10T07:06:58;14.50;98.20
2465;DHT22;1244;54.326;10.074;2023-05-10T07:09:23;14.60;98.50
2465;DHT22;1244;54.326;10.074;2023-05-10T07:11:49;14.50;98.40
2465;DHT22;1244;54.326;10.074;2023-05-10T07:14:15;14.50;98.90
2465;DHT22;1244;54.326;10.074;2023-05-10T07:16:40;14.70;99.50
2465;DHT22;1244;54.326;10.074;2023-05-10T07:19:06;15.00;99.90
2465;DHT22;1244;54.326;10.074;2023-05-10T07:21:32;14.90;99.90
2465;DHT22;1244;54.326;10.074;2023-05-10T07:23:57;15.00;99.90
2465;DHT22;1244;54.326;10.074;2023-05-10T07:26:23;15.20;99.90
2465;DHT22;1244;54.326;10.074;2023-05-10T07:28:49;15.30;99.90
2465;DHT22;1244;54.326;10.074;2023-05-10T07:31:15;15.10;99.90
2465;DHT22;1244;54.326;10.074;2023-05-10T07:33:40;15.10;99.90
2465;DHT22;1244;54.326;10.074;2023-05-10T07:36:06;15.10;99.90
2465;DHT22;1244;54.326;10.074;2023-05-10T07:38:32;15.00;99.90
2465;DHT22;1244;54.326;10.074;2023-05-10T07:40:57;15.10;99.90
2465;DHT22;1244;54.326;10.074;2023-05-10T07:43:23;15.10;99.90
2465;DHT22;1244;54.326;10.074;2023-05-10T07:45:48;15.20;99.90
2465;DHT22;1244;54.326;10.074;2023-05-10T07:48:14;15.30;99.90
2465;DHT22;1244;54.326;10.074;2023-05-10T07:50:39;15.50;99.90
2465;DHT22;1244;54.326;10.074;2023-05-10T07:53:05;15.50;99.90
2465;DHT22;1244;54.326;10.074;2023-05-10T07:55:30;15.70;99.90
2465;DHT22;1244;54.326;10.074;2023-05-10T07:57:56;15.80;99.90
2465;DHT22;1244;54.326;10.074;2023-05-10T08:00:21;15.70;99.90
2465;DHT22;1244;54.326;10.074;2023-05-10T08:02:47;16.00;99.90
2465;DHT22;1244;54.326;10.074;2023-05-10T08:05:13;16.10;99.90
2465;DHT22;1244;54.326;10.074;2023-05-10T08:07:38;16.20;99.90
2465;DHT22;1244;54.326;10.074;2023-05-10T08:10:05;16.20;99.90
2465;DHT22;1244;54.326;10.074;2023-05-10T08:12:30;16.40;99.90
2465;DHT22;1244;54.326;10.074;2023-05-10T08:14:56;16.40;99.90
2465;DHT22;1244;54.326;10.074;2023-05-10T08:17:22;16.50;99.90
2465;DHT22;1244;54.326;10.074;2023-05-10T08:19:47;16.60;99.90
2465;DHT22;1244;54.326;10.074;2023-05-10T08:22:13;16.50;99.90
2465;DHT22;1244;54.326;10.074;2023-05-10T08:24:38;16.60;99.90
2465;DHT22;1244;54.326;10.074;2023-05-10T08:27:08;16.40;99.90
2465;DHT22;1244;54.326;10.074;2023-05-10T08:29:34;16.40;99.90
2465;DHT22;1244;54.326;10.074;2023-05-10T08:31:59;16.70;99.90
2465;DHT22;1244;54.326;10.074;2023-05-10T08:34:26;16.60;99.90
2465;DHT22;1244;54.326;10.074;2023-05-10T08:36:52;16.70;99.90
2465;DHT22;1244;54.326;10.074;2023-05-10T08:39:17;16.90;99.90
2465;DHT22;1244;54.326;10.074;2023-05-10T08:41:44;17.10;99.90
2465;DHT22;1244;54.326;10.074;2023-05-10T08:44:10;17.00;99.90
2465;DHT22;1244;54.326;10.074;2023-05-10T08:46:37;17.00;99.90
2465;DHT22;1244;54.326;10.074;2023-05-10T08:49:06;17.20;99.90
2465;DHT22;1244;54.326;10.074;2023-05-10T08:51:36;17.10;99.90
2465;DHT22;1244;54.326;10.074;2023-05-10T08:54:04;17.10;99.90
2465;DHT22;1244;54.326;10.074;2023-05-10T08:56:30;17.30;99.90
2465;DHT22;1244;54.326;10.074;2023-05-10T08:58:57;17.20;99.90
2465;DHT22;1244;54.326;10.074;2023-05-10T09:01:23;17.30;99.90
2465;DHT22;1244;54.326;10.074;2023-05-10T09:03:50;17.30;99.90
2465;DHT22;1244;54.326;10.074;2023-05-10T09:06:16;17.30;99.90
2465;DHT22;1244;54.326;10.074;2023-05-10T09:08:42;17.40;99.90
2465;DHT22;1244;54.326;10.074;2023-05-10T09:11:09;18.10;99.90
2465;DHT22;1244;54.326;10.074;2023-05-10T09:13:35;18.20;99.90
2465;DHT22;1244;54.326;10.074;2023-05-10T09:16:02;18.00;99.90
2465;DHT22;1244;54.326;10.074;2023-05-10T09:18:28;18.20;99.90
2465;DHT22;1244;54.326;10.074;2023-05-10T09:20:54;18.20;99.90
2465;DHT22;1244;54.326;10.074;2023-05-10T09:23:20;18.00;99.90
2465;DHT22;1244;54.326;10.074;2023-05-10T09:25:45;18.20;99.90
2465;DHT22;1244;54.326;10.074;2023-05-10T09:28:11;18.20;99.90
2465;DHT22;1244;54.326;10.074;2023-05-10T09:30:37;17.90;99.90
2465;DHT22;1244;54.326;10.074;2023-05-10T09:33:03;17.80;99.90
2465;DHT22;1244;54.326;10.074;2023-05-10T09:40:27;18.50;99.90
2465;DHT22;1244;54.326;10.074;2023-05-10T09:42:54;19.10;99.90
2465;DHT22;1244;54.326;10.074;2023-05-10T09:45:20;19.00;99.90
2465;DHT22;1244;54.326;10.074;2023-05-10T09:47:49;18.30;99.90
2465;DHT22;1244;54.326;10.074;2023-05-10T09:50:14;18.30;99.90
2465;DHT22;1244;54.326;10.074;2023-05-10T09:52:56;18.10;99.90
2465;DHT22;1244;54.326;10.074;2023-05-10T09:55:39;18.50;99.90
2465;DHT22;1244;54.326;10.074;2023-05-10T09:58:05;19.00;99.90
2465;DHT22;1244;54.326;10.074;2023-05-10T10:00:36;19.30;99.90
2465;DHT22;1244;54.326;10.074;2023-05-10T10:03:02;19.30;99.90
2465;DHT22;1244;54.326;10.074;2023-05-10T10:05:35;19.30;99.90
2465;DHT22;1244;54.326;10.074;2023-05-10T10:08:03;19.20;99.90
2465;DHT22;1244;54.326;10.074;2023-05-10T10:10:31;19.10;99.90
2465;DHT22;1244;54.326;10.074;2023-05-10T10:12:57;19.60;99.90
2465;DHT22;1244;54.326;10.074;2023-05-10T10:15:23;19.80;99.90
2465;DHT22;1244;54.326;10.074;2023-05-10T10:17:50;19.60;99.90
2465;DHT22;1244;54.326;10.074;2023-05-10T10:20:17;19.70;99.90
2465;DHT22;1244;54.326;10.074;2023-05-10T10:22:43;19.90;99.90
2465;DHT22;1244;54.326;10.074;2023-05-10T10:25:11;20.20;99.90
2465;DHT22;1244;54.326;10.074;2023-05-10T10:30:29;20.30;99.90
2465;DHT22;1244;54.326;10.074;2023-05-10T10:33:23;21.00;99.90
2465;DHT22;1244;54.326;10.074;2023-05-10T10:35:54;20.80;99.90
2465;DHT22;1244;54.326;10.074;2023-05-10T10:38:20;20.60;99.90
2465;DHT22;1244;54.326;10.074;2023-05-10T10:40:47;20.70;99.90
2465;DHT22;1244;54.326;10.074;2023-05-10T10:43:24;20.60;99.90
2465;DHT22;1244;54.326;10.074;2023-05-10T10:46:17;20.20;99.90
2465;DHT22;1244;54.326;10.074;2023-05-10T10:49:07;19.80;99.90
2465;DHT22;1244;54.326;10.074;2023-05-10T10:51:37;19.50;99.90
2465;DHT22;1244;54.326;10.074;2023-05-10T10:54:12;19.40;99.90
2465;DHT22;1244;54.326;10.074;2023-05-10T10:56:38;19.60;99.90
2465;DHT22;1244;54.326;10.074;2023-05-10T10:59:03;19.70;99.90
2465;DHT22;1244;54.326;10.074;2023-05-10T11:01:35;19.80;99.90
2465;DHT22;1244;54.326;10.074;2023-05-10T11:06:33;19.50;99.90
2465;DHT22;1244;54.326;10.074;2023-05-10T11:09:07;19.20;99.90
2465;DHT22;1244;54.326;10.074;2023-05-10T11:11:35;18.90;99.90
2465;DHT22;1244;54.326;10.074;2023-05-10T11:14:05;18.90;99.90
2465;DHT22;1244;54.326;10.074;2023-05-10T11:16:41;18.70;99.90
2465;DHT22;1244;54.326;10.074;2023-05-10T11:19:16;18.40;99.90
2465;DHT22;1244;54.326;10.074;2023-05-10T11:21:50;18.40;99.90
2465;DHT22;1244;54.326;10.074;2023-05-10T11:24:21;18.50;99.90
2465;DHT22;1244;54.326;10.074;2023-05-10T11:26:49;18.40;99.90
2465;DHT22;1244;54.326;10.074;2023-05-10T11:29:16;18.40;99.90
2465;DHT22;1244;54.326;10.074;2023-05-10T11:31:43;18.40;99.90
2465;DHT22;1244;54.326;10.074;2023-05-10T11:34:09;18.30;99.90
2465;DHT22;1244;54.326;10.074;2023-05-10T11:36:35;18.30;99.90
2465;DHT22;1244;54.326;10.074;2023-05-10T11:39:02;18.30;99.90
2465;DHT22;1244;54.326;10.074;2023-05-10T11:41:29;18.40;99.90
2465;DHT22;1244;54.326;10.074;2023-05-10T11:43:55;18.20;99.90
2465;DHT22;1244;54.326;10.074;2023-05-10T11:46:25;18.30;99.90
2465;DHT22;1244;54.326;10.074;2023-05-10T11:48:54;18.30;99.90
2465;DHT22;1244;54.326;10.074;2023-05-10T11:51:21;18.30;99.90
2465;DHT22;1244;54.326;10.074;2023-05-10T11:53:48;18.20;99.90
2465;DHT22;1244;54.326;10.074;2023-05-10T11:56:14;18.30;99.90
2465;DHT22;1244;54.326;10.074;2023-05-10T11:58:39;18.20;99.90
2465;DHT22;1244;54.326;10.074;2023-05-10T12:01:06;18.40;99.90
2465;DHT22;1244;54.326;10.074;2023-05-10T12:03:33;18.30;99.90
2465;DHT22;1244;54.326;10.074;2023-05-10T12:05:59;18.20;99.90
2465;DHT22;1244;54.326;10.074;2023-05-10T12:08:27;18.20;99.90
2465;DHT22;1244;54.326;10.074;2023-05-10T12:11:03;18.00;99.90
2465;DHT22;1244;54.326;10.074;2023-05-10T12:13:29;18.10;99.90
2465;DHT22;1244;54.326;10.074;2023-05-10T12:15:57;17.90;99.90
2465;DHT22;1244;54.326;10.074;2023-05-10T12:18:24;18.00;99.90
2465;DHT22;1244;54.326;10.074;2023-05-10T12:20:52;17.90;99.90
2465;DHT22;1244;54.326;10.074;2023-05-10T12:23:19;18.00;99.90
2465;DHT22;1244;54.326;10.074;2023-05-10T12:25:46;17.80;99.90
2465;DHT22;1244;54.326;10.074;2023-05-10T12:28:11;17.60;99.90
2465;DHT22;1244;54.326;10.074;2023-05-10T12:30:38;17.30;99.90
2465;DHT22;1244;54.326;10.074;2023-05-10T12:33:09;17.00;99.90
2465;DHT22;1244;54.326;10.074;2023-05-10T12:35:49;16.80;99.90
2465;DHT22;1244;54.326;10.074;2023-05-10T12:38:29;16.30;99.90
2465;DHT22;1244;54.326;10.074;2023-05-10T12:41:06;16.30;99.90
2465;DHT22;1244;54.326;10.074;2023-05-10T12:43:33;16.10;99.90
2465;DHT22;1244;54.326;10.074;2023-05-10T12:46:10;16.00;99.90
2465;DHT22;1244;54.326;10.074;2023-05-10T12:48:37;15.80;99.90
2465;DHT22;1244;54.326;10.074;2023-05-10T12:51:04;15.90;99.90
2465;DHT22;1244;54.326;10.074;2023-05-10T12:53:30;15.70;99.90
2465;DHT22;1244;54.326;10.074;2023-05-10T12:55:56;15.70;99.90
2465;DHT22;1244;54.326;10.074;2023-05-10T12:58:22;15.50;99.90
2465;DHT22;1244;54.326;10.074;2023-05-10T13:00:47;15.30;99.90
2465;DHT22;1244;54.326;10.074;2023-05-10T13:03:13;15.10;99.90
2465;DHT22;1244;54.326;10.074;2023-05-10T13:05:39;15.20;99.90
2465;DHT22;1244;54.326;10.074;2023-05-10T13:08:04;15.20;99.90
2465;DHT22;1244;54.326;10.074;2023-05-10T13:10:31;15.00;99.90
2465;DHT22;1244;54.326;10.074;2023-05-10T13:12:57;14.80;99.90
2465;DHT22;1244;54.326;10.074;2023-05-10T13:15:23;15.10;99.90
2465;DHT22;1244;54.326;10.074;2023-05-10T13:17:49;15.20;99.90
2465;DHT22;1244;54.326;10.074;2023-05-10T13:20:15;15.10;99.90
2465;DHT22;1244;54.326;10.074;2023-05-10T13:22:42;15.00;99.90
2465;DHT22;1244;54.326;10.074;2023-05-10T13:25:08;15.30;99.90
2465;DHT22;1244;54.326;10.074;2023-05-10T13:27:34;15.20;99.90
2465;DHT22;1244;54.326;10.074;2023-05-10T13:29:59;15.20;99.90
2465;DHT22;1244;54.326;10.074;2023-05-10T13:32:25;15.10;99.90
2465;DHT22;1244;54.326;10.074;2023-05-10T13:34:51;15.10;99.90
2465;DHT22;1244;54.326;10.074;2023-05-10T13:37:17;15.10;99.90
2465;DHT22;1244;54.326;10.074;2023-05-10T13:39:42;15.10;99.90
2465;DHT22;1244;54.326;10.074;2023-05-10T13:42:08;15.20;99.90
2465;DHT22;1244;54.326;10.074;2023-05-10T13:44:33;15.20;99.90
2465;DHT22;1244;54.326;10.074;2023-05-10T13:46:59;15.30;99.90
2465;DHT22;1244;54.326;10.074;2023-05-10T13:49:25;15.10;99.90
2465;DHT22;1244;54.326;10.074;2023-05-10T13:51:50;15.30;99.90
2465;DHT22;1244;54.326;10.074;2023-05-10T13:54:16;15.30;99.90
2465;DHT22;1244;54.326;10.074;2023-05-10T13:56:45;15.20;99.90
2465;DHT22;1244;54.326;10.074;2023-05-10T13:59:10;15.00;99.90
2465;DHT22;1244;54.326;10.074;2023-05-10T14:01:36;15.10;99.90
2465;DHT22;1244;54.326;10.074;2023-05-10T14:04:01;15.00;99.90
2465;DHT22;1244;54.326;10.074;2023-05-10T14:06:27;15.20;99.90
2465;DHT22;1244;54.326;10.074;2023-05-10T14:08:53;15.20;99.90
2465;DHT22;1244;54.326;10.074;2023-05-10T14:11:19;15.50;99.90
2465;DHT22;1244;54.326;10.074;2023-05-10T14:13:45;15.50;99.90
2465;DHT22;1244;54.326;10.074;2023-05-10T14:16:11;15.60;99.90
2465;DHT22;1244;54.326;10.074;2023-05-10T14:18:37;15.70;99.90
2465;DHT22;1244;54.326;10.074;2023-05-10T14:21:03;15.80;99.90
2465;DHT22;1244;54.326;10.074;2023-05-10T14:23:28;15.80;99.90
2465;DHT22;1244;54.326;10.074;2023-05-10T14:25:54;15.70;99.90
2465;DHT22;1244;54.326;10.074;2023-05-10T14:28:20;15.70;99.90
2465;DHT22;1244;54.326;10.074;2023-05-10T14:30:46;15.80;99.90
2465;DHT22;1244;54.326;10.074;2023-05-10T14:33:12;16.10;99.90
2465;DHT22;1244;54.326;10.074;2023-05-10T14:35:37;16.00;99.90
2465;DHT22;1244;54.326;10.074;2023-05-10T14:38:03;16.00;99.90
2465;DHT22;1244;54.326;10.074;2023-05-10T14:40:29;15.90;99.90
2465;DHT22;1244;54.326;10.074;2023-05-10T14:42:55;15.80;99.90
2465;DHT22;1244;54.326;10.074;2023-05-10T14:45:22;15.70;99.90
2465;DHT22;1244;54.326;10.074;2023-05-10T14:47:48;15.50;99.90
2465;DHT22;1244;54.326;10.074;2023-05-10T14:50:14;15.80;99.90
2465;DHT22;1244;54.326;10.074;2023-05-10T14:52:40;15.80;99.90
2465;DHT22;1244;54.326;10.074;2023-05-10T14:55:06;15.80;99.90
2465;DHT22;1244;54.326;10.074;2023-05-10T14:57:32;16.00;99.90
2465;DHT22;1244;54.326;10.074;2023-05-10T14:59:57;16.20;99.90
2465;DHT22;1244;54.326;10.074;2023-05-10T15:02:23;16.20;99.90
2465;DHT22;1244;54.326;10.074;2023-05-10T15:04:48;16.20;99.90
2465;DHT22;1244;54.326;10.074;2023-05-10T15:07:14;16.30;99.90
2465;DHT22;1244;54.326;10.074;2023-05-10T15:09:41;16.40;99.90
2465;DHT22;1244;54.326;10.074;2023-05-10T15:12:07;16.40;99.90
2465;DHT22;1244;54.326;10.074;2023-05-10T15:14:32;16.30;99.90
2465;DHT22;1244;54.326;10.074;2023-05-10T15:16:59;16.60;99.90
2465;DHT22;1244;54.326;10.074;2023-05-10T15:19:24;16.60;99.90
2465;DHT22;1244;54.326;10.074;2023-05-10T15:21:50;16.40;99.90
2465;DHT22;1244;54.326;10.074;2023-05-10T15:24:15;16.30;99.90
2465;DHT22;1244;54.326;10.074;2023-05-10T15:26:41;16.40;99.90
2465;DHT22;1244;54.326;10.074;2023-05-10T15:29:06;16.40;99.90
2465;DHT22;1244;54.326;10.074;2023-05-10T15:31:32;16.20;99.90
2465;DHT22;1244;54.326;10.074;2023-05-10T15:34:00;16.30;99.90
2465;DHT22;1244;54.326;10.074;2023-05-10T15:36:26;16.20;99.90
2465;DHT22;1244;54.326;10.074;2023-05-10T15:38:52;16.00;99.90
2465;DHT22;1244;54.326;10.074;2023-05-10T15:41:18;16.10;99.90
2465;DHT22;1244;54.326;10.074;2023-05-10T15:43:43;16.00;99.90
2465;DHT22;1244;54.326;10.074;2023-05-10T15:46:09;16.20;99.90
2465;DHT22;1244;54.326;10.074;2023-05-10T15:48:34;16.20;99.90
2465;DHT22;1244;54.326;10.074;2023-05-10T15:51:00;16.30;99.90
2465;DHT22;1244;54.326;10.074;2023-05-10T15:53:25;16.50;99.90
2465;DHT22;1244;54.326;10.074;2023-05-10T15:55:51;16.50;99.90
2465;DHT22;1244;54.326;10.074;2023-05-10T15:58:16;16.30;99.90
2465;DHT22;1244;54.326;10.074;2023-05-10T16:00:42;16.10;99.90
2465;DHT22;1244;54.326;10.074;2023-05-10T16:03:07;16.10;99.90
2465;DHT22;1244;54.326;10.074;2023-05-10T16:05:33;16.30;99.90
2465;DHT22;1244;54.326;10.074;2023-05-10T16:07:59;16.30;99.90
2465;DHT22;1244;54.326;10.074;2023-05-10T16:10:26;16.10;99.90